createdAt,value
2023-02-08T00:04:29.390Z,69.97
2023-02-08T00:09:31.646Z,69.80
2023-02-08T00:14:33.743Z,69.95
2023-02-08T00:19:39.129Z,69.58
2023-02-08T00:24:41.250Z,69.72
2023-02-08T00:29:43.419Z,69.66
2023-02-08T00:34:45.556Z,69.75
2023-02-08T00:39:47.638Z,69.98
2023-02-08T00:44:49.766Z,69.71
2023-02-08T00:49:52.160Z,69.67
2023-02-08T00:54:54.247Z,69.49
2023-02-08T00:59:56.348Z,69.53
2023-02-08T01:04:58.446Z,69.54
2023-02-08T01:10:00.883Z,69.52
2023-02-08T01:15:03.025Z,69.63
2023-02-08T01:20:06.656Z,69.45
2023-02-08T01:25:08.929Z,69.30
2023-02-08T01:30:12.414Z,69.61
2023-02-08T01:35:14.757Z,69.56
2023-02-08T01:40:17.072Z,69.56
2023-02-08T01:45:24.819Z,69.71
2023-02-08T01:50:32.849Z,69.86
2023-02-08T01:55:40.214Z,70.05
2023-02-08T02:00:42.772Z,70.01
2023-02-08T02:05:50.896Z,69.75
2023-02-08T02:10:53.073Z,69.66
2023-02-08T02:15:55.472Z,69.53
2023-02-08T02:21:16.916Z,69.70
2023-02-08T02:26:52.890Z,69.95
2023-02-08T02:32:22.626Z,69.84
2023-02-08T02:37:52.303Z,69.70
2023-02-08T02:43:24.273Z,69.68
2023-02-08T02:48:59.216Z,70.01
2023-02-08T02:54:04.936Z,69.78
2023-02-08T02:59:09.958Z,69.63
2023-02-08T03:04:17.971Z,69.95
2023-02-08T03:09:31.839Z,69.98
2023-02-08T03:14:59.917Z,70.07
2023-02-08T03:20:25.395Z,69.81
2023-02-08T03:25:35.447Z,69.79
2023-02-08T03:31:17.766Z,69.62
2023-02-08T03:36:33.353Z,69.83
2023-02-08T03:41:39.298Z,69.71
2023-02-08T03:46:44.878Z,69.80
2023-02-08T03:51:47.202Z,70.12
2023-02-08T03:56:56.472Z,69.96
2023-02-08T04:02:02.597Z,69.99
2023-02-08T04:07:05.472Z,70.01
2023-02-08T04:12:08.243Z,70.13
2023-02-08T04:17:10.583Z,70.27
2023-02-08T04:22:12.930Z,70.51
2023-02-08T04:27:15.249Z,70.51
2023-02-08T04:32:17.500Z,70.39
2023-02-08T04:37:19.739Z,70.59
2023-02-08T04:42:22.020Z,70.48
2023-02-08T04:47:24.281Z,70.52
2023-02-08T04:52:26.588Z,70.66
2023-02-08T04:57:28.817Z,70.77
2023-02-08T05:02:31.029Z,70.88
2023-02-08T05:07:33.787Z,70.93
2023-02-08T05:12:36.137Z,70.98
2023-02-08T05:17:39.143Z,71.09
2023-02-08T05:22:41.690Z,71.13
2023-02-08T05:27:43.907Z,70.97
2023-02-08T05:32:46.140Z,71.00
2023-02-08T05:37:48.351Z,71.16
2023-02-08T05:42:50.663Z,71.04
2023-02-08T05:47:52.860Z,71.11
2023-02-08T05:52:55.113Z,71.11
2023-02-08T05:57:57.577Z,71.32
2023-02-08T06:02:59.906Z,71.43
2023-02-08T06:08:02.149Z,71.06
2023-02-08T06:13:05.026Z,71.23
2023-02-08T06:18:08.260Z,71.28
2023-02-08T06:23:10.537Z,71.17
2023-02-08T06:28:12.928Z,71.35
2023-02-08T06:33:15.911Z,71.22
2023-02-08T06:38:18.301Z,71.20
2023-02-08T06:43:20.918Z,71.15
2023-02-08T06:48:23.106Z,71.03
2023-02-08T06:53:25.448Z,71.45
2023-02-08T06:58:27.636Z,71.23
2023-02-08T07:03:29.878Z,71.35
2023-02-08T07:08:33.741Z,71.21
2023-02-08T07:13:36.906Z,71.23
2023-02-08T07:18:39.068Z,71.49
2023-02-08T07:23:41.773Z,71.12
2023-02-08T07:28:44.342Z,71.39
2023-02-08T07:33:46.708Z,71.17
2023-02-08T07:38:48.969Z,71.20
2023-02-08T07:43:51.198Z,71.25
2023-02-08T07:48:53.759Z,71.28
2023-02-08T07:53:55.990Z,71.18
2023-02-08T07:58:58.321Z,71.18
2023-02-08T08:04:00.502Z,71.40
2023-02-08T08:09:03.469Z,71.57
2023-02-08T08:14:07.895Z,71.30
2023-02-08T08:19:10.125Z,71.46
2023-02-08T08:24:12.350Z,71.30
2023-02-08T08:29:15.147Z,71.49
2023-02-08T08:34:17.260Z,71.47
2023-02-08T08:39:19.418Z,71.55
2023-02-08T08:44:21.644Z,71.32
2023-02-08T08:49:24.898Z,71.42
2023-02-08T08:54:27.080Z,71.40
2023-02-08T08:59:29.503Z,71.38
2023-02-08T09:04:31.875Z,71.27
2023-02-08T09:09:35.219Z,71.26
2023-02-08T09:14:37.350Z,71.30
2023-02-08T09:19:40.119Z,71.27
2023-02-08T09:25:02.481Z,71.45
2023-02-08T09:30:05.835Z,71.47
2023-02-08T09:35:13.569Z,71.43
2023-02-08T09:40:31.201Z,71.89
2023-02-08T09:45:59.814Z,71.58
2023-02-08T09:51:34.339Z,71.45
2023-02-08T09:56:40.683Z,70.90
2023-02-08T10:01:43.256Z,70.44
2023-02-08T10:06:45.693Z,69.94
2023-02-08T10:12:12.420Z,69.91
2023-02-08T10:17:45.615Z,69.90
2023-02-08T10:23:13.292Z,70.17
2023-02-08T10:29:01.281Z,70.16
2023-02-08T10:34:27.054Z,70.28
2023-02-08T10:39:31.557Z,70.33
2023-02-08T10:44:54.249Z,70.65
2023-02-08T10:50:21.279Z,70.20
2023-02-08T10:55:29.701Z,70.38
2023-02-08T11:00:35.274Z,69.80
2023-02-08T11:05:38.559Z,70.22
2023-02-08T11:10:40.948Z,69.97
2023-02-08T11:15:47.809Z,69.54
2023-02-08T11:21:12.274Z,69.87
2023-02-08T11:26:35.565Z,69.77
2023-02-08T11:32:13.826Z,69.83
2023-02-08T11:38:02.270Z,69.65
2023-02-08T11:43:05.369Z,69.36
2023-02-08T11:48:22.399Z,69.50
2023-02-08T11:53:32.517Z,69.66
2023-02-08T11:58:35.128Z,69.41
2023-02-08T12:03:39.450Z,69.66
2023-02-08T12:09:23.767Z,69.50
2023-02-08T12:14:38.013Z,69.67
2023-02-08T12:20:17.593Z,69.60
2023-02-08T12:26:10.442Z,69.62
2023-02-08T12:31:32.103Z,69.35
2023-02-08T12:36:47.170Z,69.66
2023-02-08T12:41:57.711Z,69.59
2023-02-08T12:47:27.697Z,69.64
2023-02-08T12:52:45.349Z,69.46
2023-02-08T12:57:53.769Z,69.45
2023-02-08T13:03:02.537Z,69.45
2023-02-08T13:08:17.655Z,69.44
2023-02-08T13:13:23.620Z,69.55
2023-02-08T13:18:30.868Z,69.41
2023-02-08T13:23:50.574Z,69.52
2023-02-08T13:28:56.108Z,69.37
2023-02-08T13:34:02.570Z,69.22
2023-02-08T13:39:12.541Z,69.34
2023-02-08T13:44:45.685Z,69.34
2023-02-08T13:49:51.072Z,69.43
2023-02-08T13:55:39.865Z,69.43
2023-02-08T14:01:16.732Z,69.31
2023-02-08T14:06:50.836Z,69.40
2023-02-08T14:12:04.255Z,69.40
2023-02-08T14:17:16.986Z,69.43
2023-02-08T14:22:19.531Z,69.53
2023-02-08T14:27:27.253Z,69.64
2023-02-08T14:32:32.144Z,69.84
2023-02-08T14:37:36.507Z,69.74
2023-02-08T14:43:01.368Z,69.87
2023-02-08T14:48:09.963Z,69.97
2023-02-08T14:53:12.122Z,69.96
2023-02-08T14:58:18.923Z,70.03
2023-02-08T15:03:21.332Z,70.23
2023-02-08T15:08:23.757Z,70.23
2023-02-08T15:13:26.165Z,70.43
2023-02-08T15:18:31.362Z,70.29
2023-02-08T15:23:33.712Z,70.33
2023-02-08T15:28:36.968Z,70.46
2023-02-08T15:33:40.938Z,70.44
2023-02-08T15:38:45.174Z,70.54
2023-02-08T15:43:48.081Z,70.63
2023-02-08T15:48:50.661Z,70.69
2023-02-08T15:53:54.281Z,70.70
2023-02-08T15:58:58.313Z,70.70
2023-02-08T16:04:03.120Z,70.67
2023-02-08T16:09:05.970Z,70.96
2023-02-08T16:14:08.432Z,70.76
2023-02-08T16:19:26.868Z,70.95
2023-02-08T16:24:29.071Z,70.79
2023-02-08T16:29:37.594Z,71.05
2023-02-08T16:34:40.195Z,71.01
2023-02-08T16:39:52.528Z,71.32
2023-02-08T16:45:15.759Z,71.44
2023-02-08T16:50:26.478Z,71.45
2023-02-08T16:55:46.893Z,71.35
2023-02-08T17:00:54.500Z,71.37
2023-02-08T17:05:56.896Z,71.50
2023-02-08T17:10:59.304Z,71.37
2023-02-08T17:16:01.626Z,71.55
2023-02-08T17:21:05.329Z,71.60
2023-02-08T17:26:12.751Z,71.81
2023-02-08T17:31:32.815Z,71.86
2023-02-08T17:36:42.396Z,71.73
2023-02-08T17:41:48.497Z,71.77
2023-02-08T17:46:50.734Z,71.91
2023-02-08T17:51:58.407Z,71.88
2023-02-08T17:57:00.594Z,72.04
2023-02-08T18:02:06.462Z,72.05
2023-02-08T18:07:08.599Z,72.09
2023-02-08T18:12:10.828Z,72.28
2023-02-08T18:17:15.848Z,72.41
2023-02-08T18:22:20.213Z,72.23
2023-02-08T18:27:25.192Z,72.62
2023-02-08T18:32:28.492Z,72.29
2023-02-08T18:37:31.144Z,72.48
2023-02-08T18:42:36.637Z,72.73
2023-02-08T18:47:39.796Z,72.72
2023-02-08T18:52:45.379Z,73.08
2023-02-08T18:57:48.429Z,73.66
2023-02-08T19:02:50.705Z,73.71
2023-02-08T19:07:52.870Z,73.92
2023-02-08T19:12:55.151Z,73.95
2023-02-08T19:17:59.335Z,74.39
2023-02-08T19:23:02.052Z,74.32
2023-02-08T19:28:06.431Z,74.39
2023-02-08T19:33:10.246Z,74.69
2023-02-08T19:38:12.425Z,74.86
2023-02-08T19:43:14.606Z,74.83
2023-02-08T19:48:16.818Z,75.04
2023-02-08T19:53:18.984Z,75.27
2023-02-08T19:58:21.102Z,75.27
2023-02-08T20:03:23.815Z,75.17
2023-02-08T20:08:27.430Z,75.36
2023-02-08T20:13:29.637Z,75.57
2023-02-08T20:18:31.840Z,75.78
2023-02-08T20:23:34.167Z,75.78
2023-02-08T20:28:40.321Z,75.97
2023-02-08T20:33:45.676Z,75.81
2023-02-08T20:38:54.684Z,76.05
2023-02-08T20:43:57.981Z,75.92
2023-02-08T20:49:03.429Z,75.83
2023-02-08T20:54:05.738Z,76.02
2023-02-08T20:59:10.337Z,75.97
2023-02-08T21:04:13.866Z,76.09
2023-02-08T21:09:18.319Z,76.11
2023-02-08T21:14:27.399Z,76.37
2023-02-08T21:19:42.079Z,76.47
2023-02-08T21:24:44.517Z,76.31
2023-02-08T21:29:53.047Z,76.45
2023-02-08T21:34:55.606Z,76.23
2023-02-08T21:39:58.123Z,76.30
2023-02-08T21:45:00.610Z,76.50
2023-02-08T21:50:21.469Z,76.33
2023-02-08T21:55:24.003Z,76.36
2023-02-08T22:00:26.519Z,76.79
2023-02-08T22:05:47.546Z,76.68
2023-02-08T22:10:58.317Z,76.73
2023-02-08T22:16:02.654Z,76.91
2023-02-08T22:21:05.287Z,76.89
2023-02-08T22:26:09.048Z,77.17
2023-02-08T22:31:13.980Z,77.24
2023-02-08T22:36:16.145Z,77.01
2023-02-08T22:41:18.593Z,77.05
2023-02-08T22:46:21.281Z,77.29
2023-02-08T22:51:23.858Z,77.47
2023-02-08T22:56:25.971Z,77.56
2023-02-08T23:01:29.103Z,77.68
2023-02-08T23:06:31.342Z,77.43
2023-02-08T23:11:34.007Z,77.71
2023-02-08T23:16:36.297Z,77.81
2023-02-08T23:21:39.771Z,77.64
2023-02-08T23:26:42.112Z,77.80
2023-02-08T23:31:45.236Z,77.99
2023-02-08T23:36:47.571Z,78.03
2023-02-08T23:41:49.668Z,77.90
2023-02-08T23:46:51.963Z,78.22
2023-02-08T23:51:54.084Z,77.97
2023-02-08T23:56:56.213Z,78.23
